createdAt,value
2022-12-18T00:00:00.454Z,-10.14
2022-12-18T00:00:32.065Z,-10.14
2022-12-18T00:01:04.912Z,-10.14
2022-12-18T00:01:34.490Z,-10.14
2022-12-18T00:01:52.055Z,-10.14
2022-12-18T00:02:24.020Z,-10.14
2022-12-18T00:02:41.218Z,-10.14
2022-12-18T00:03:13.052Z,-10.14
2022-12-18T00:03:35.472Z,-10.14
2022-12-18T00:04:00.102Z,-10.14
2022-12-18T00:04:32.056Z,-10.14
2022-12-18T00:05:04.292Z,-10.14
2022-12-18T00:05:34.600Z,-10.14
2022-12-18T00:05:52.248Z,-10.14
2022-12-18T00:06:24.993Z,-10.14
2022-12-18T00:06:42.206Z,-10.14
2022-12-18T00:07:12.094Z,-10.14
2022-12-18T00:07:34.410Z,-10.14
2022-12-18T00:07:59.980Z,-10.14
2022-12-18T00:08:33.006Z,-10.14
2022-12-18T00:09:04.225Z,-10.14
2022-12-18T00:09:39.506Z,-10.14
2022-12-18T00:10:08.126Z,-10.14
2022-12-18T00:10:35.709Z,-10.14
2022-12-18T00:10:59.923Z,-10.14
2022-12-18T00:11:28.115Z,-10.14
2022-12-18T00:12:31.986Z,-10.14
2022-12-18T00:13:08.319Z,-10.03
2022-12-18T00:13:35.662Z,-10.03
2022-12-18T00:14:07.530Z,-10.03
2022-12-18T00:14:24.835Z,-10.03
2022-12-18T00:14:42.164Z,-10.03
2022-12-18T00:15:12.375Z,-10.03
2022-12-18T00:15:35.271Z,-10.03
2022-12-18T00:16:00.238Z,-10.03
2022-12-18T00:16:32.978Z,-10.03
2022-12-18T00:17:04.127Z,-9.91
2022-12-18T00:17:36.147Z,-9.91
2022-12-18T00:18:07.982Z,-9.91
2022-12-18T00:18:35.626Z,-10.03
2022-12-18T00:18:56.104Z,-10.03
2022-12-18T00:19:28.160Z,-10.03
2022-12-18T00:20:00.000Z,-10.03
2022-12-18T00:20:32.270Z,-9.91
2022-12-18T00:21:05.148Z,-9.91
2022-12-18T00:21:35.402Z,-9.91
2022-12-18T00:21:51.906Z,-9.91
2022-12-18T00:22:24.049Z,-9.91
2022-12-18T00:22:41.236Z,-9.91
2022-12-18T00:23:12.833Z,-9.91
2022-12-18T00:23:35.707Z,-9.91
2022-12-18T00:23:59.968Z,-9.91
2022-12-18T00:24:32.268Z,-9.91
2022-12-18T00:25:04.262Z,-10.03
2022-12-18T00:25:35.356Z,-10.03
2022-12-18T00:26:07.543Z,-10.03
2022-12-18T00:26:24.840Z,-10.03
2022-12-18T00:26:42.019Z,-10.03
2022-12-18T00:27:12.176Z,-10.03
2022-12-18T00:27:35.211Z,-10.03
2022-12-18T00:28:00.014Z,-10.03
2022-12-18T00:28:32.956Z,-10.03
2022-12-18T00:29:04.309Z,-10.03
2022-12-18T00:29:36.275Z,-10.03
2022-12-18T00:30:08.282Z,-10.03
2022-12-18T00:30:35.786Z,-10.03
2022-12-18T00:30:56.334Z,-10.03
2022-12-18T00:31:28.172Z,-10.03
2022-12-18T00:32:00.985Z,-10.14
2022-12-18T00:32:32.336Z,-10.14
2022-12-18T00:33:04.934Z,-10.14
2022-12-18T00:33:35.735Z,-10.14
2022-12-18T00:34:07.634Z,-10.14
2022-12-18T00:34:25.052Z,-10.14
2022-12-18T00:34:42.228Z,-10.14
2022-12-18T00:35:12.418Z,-10.14
2022-12-18T00:35:35.252Z,-10.25
2022-12-18T00:36:00.184Z,-10.25
2022-12-18T00:36:32.847Z,-10.25
2022-12-18T00:37:04.197Z,-10.30
2022-12-18T00:37:36.062Z,-10.30
2022-12-18T00:38:08.123Z,-10.30
2022-12-18T00:38:35.251Z,-10.30
2022-12-18T00:38:56.186Z,-10.30
2022-12-18T00:39:28.046Z,-10.40
2022-12-18T00:40:01.252Z,-10.40
2022-12-18T00:40:32.284Z,-10.40
2022-12-18T00:41:05.086Z,-10.40
2022-12-18T00:41:35.560Z,-10.40
2022-12-18T00:41:52.125Z,-10.40
2022-12-18T00:42:24.251Z,-10.40
2022-12-18T00:42:41.334Z,-10.40
2022-12-18T00:43:12.875Z,-10.40
2022-12-18T00:43:35.641Z,-10.40
2022-12-18T00:44:00.176Z,-10.40
2022-12-18T00:44:32.269Z,-10.40
2022-12-18T00:45:09.098Z,-10.40
2022-12-18T00:45:35.249Z,-10.40
2022-12-18T00:45:52.476Z,-10.40
2022-12-18T00:46:24.741Z,-10.40
2022-12-18T00:46:41.899Z,-10.30
2022-12-18T00:47:12.095Z,-10.30
2022-12-18T00:47:35.324Z,-10.30
2022-12-18T00:48:00.177Z,-10.30
2022-12-18T00:48:33.403Z,-10.30
2022-12-18T00:49:04.077Z,-10.40
2022-12-18T00:49:36.313Z,-10.40
2022-12-18T00:50:08.325Z,-10.40
2022-12-18T00:50:35.253Z,-10.40
2022-12-18T00:50:56.285Z,-10.40
2022-12-18T00:51:28.116Z,-10.52
2022-12-18T00:52:01.099Z,-10.52
2022-12-18T00:52:32.277Z,-10.52
2022-12-18T00:53:04.907Z,-10.52
2022-12-18T00:53:35.492Z,-10.52
2022-12-18T00:53:52.250Z,-10.52
2022-12-18T00:54:24.222Z,-10.52
2022-12-18T00:54:41.254Z,-10.52
2022-12-18T00:55:13.195Z,-10.52
2022-12-18T00:55:35.368Z,-10.52
2022-12-18T00:56:00.189Z,-10.52
2022-12-18T00:56:32.298Z,-10.52
2022-12-18T00:57:04.089Z,-10.52
2022-12-18T00:57:35.294Z,-10.52
2022-12-18T00:57:52.289Z,-10.52
2022-12-18T00:58:24.990Z,-10.52
2022-12-18T00:58:42.143Z,-10.63
2022-12-18T00:59:28.946Z,-10.63
2022-12-18T01:00:00.540Z,-10.74
2022-12-18T01:00:33.166Z,-10.74
2022-12-18T01:01:04.288Z,-10.74
2022-12-18T01:01:36.653Z,-10.74
2022-12-18T01:02:08.433Z,-10.74
2022-12-18T01:02:35.561Z,-10.74
2022-12-18T01:02:56.236Z,-10.74
2022-12-18T01:03:28.504Z,-10.74
2022-12-18T01:04:01.396Z,-10.74
2022-12-18T01:04:32.370Z,-10.79
2022-12-18T01:05:05.318Z,-10.79
2022-12-18T01:05:35.411Z,-10.79
2022-12-18T01:05:52.480Z,-10.79
2022-12-18T01:06:24.188Z,-10.79
2022-12-18T01:06:41.359Z,-10.79
2022-12-18T01:07:13.155Z,-10.74
2022-12-18T01:07:35.229Z,-10.74
2022-12-18T01:08:00.087Z,-10.63
2022-12-18T01:08:32.245Z,-10.63
2022-12-18T01:09:04.170Z,-10.63
2022-12-18T01:09:35.404Z,-10.63
2022-12-18T01:09:52.186Z,-10.63
2022-12-18T01:10:25.476Z,-10.63
2022-12-18T01:10:42.451Z,-10.52
2022-12-18T01:11:12.235Z,-10.52
2022-12-18T01:11:35.366Z,-10.52
2022-12-18T01:12:00.198Z,-10.52
2022-12-18T01:12:33.082Z,-10.63
2022-12-18T01:13:04.253Z,-10.63
2022-12-18T01:13:36.514Z,-10.74
2022-12-18T01:14:08.213Z,-10.74
2022-12-18T01:14:35.294Z,-10.74
2022-12-18T01:14:56.293Z,-10.74
2022-12-18T01:15:28.385Z,-10.79
2022-12-18T01:16:00.971Z,-10.79
2022-12-18T01:16:32.343Z,-10.79
2022-12-18T01:17:05.205Z,-10.79
2022-12-18T01:17:35.345Z,-10.74
2022-12-18T01:17:52.198Z,-10.74
2022-12-18T01:18:24.358Z,-10.74
2022-12-18T01:18:41.495Z,-10.74
2022-12-18T01:19:15.126Z,-10.74
2022-12-18T01:19:35.355Z,-10.74
2022-12-18T01:20:00.374Z,-10.74
2022-12-18T01:20:32.292Z,-10.74
2022-12-18T01:21:05.061Z,-10.74
2022-12-18T01:21:35.274Z,-10.74
2022-12-18T01:21:52.247Z,-10.74
2022-12-18T01:22:24.314Z,-10.74
2022-12-18T01:22:41.371Z,-10.74
2022-12-18T01:23:13.119Z,-10.74
2022-12-18T01:23:36.841Z,-10.74
2022-12-18T01:24:00.185Z,-10.74
2022-12-18T01:24:32.337Z,-10.74
2022-12-18T01:25:04.479Z,-10.74
2022-12-18T01:25:35.320Z,-10.74
2022-12-18T01:25:52.307Z,-10.74
2022-12-18T01:26:25.290Z,-10.88
2022-12-18T01:26:42.435Z,-10.74
2022-12-18T01:27:12.309Z,-10.74
2022-12-18T01:27:35.365Z,-10.74
2022-12-18T01:28:00.198Z,-10.74
2022-12-18T01:28:33.124Z,-10.74
2022-12-18T01:29:04.200Z,-10.88
2022-12-18T01:29:35.982Z,-10.93
2022-12-18T01:30:08.484Z,-10.74
2022-12-18T01:30:35.375Z,-10.74
2022-12-18T01:30:56.494Z,-10.79
2022-12-18T01:31:28.216Z,-10.93
2022-12-18T01:32:01.381Z,-10.79
2022-12-18T01:32:32.400Z,-10.79
2022-12-18T01:33:05.053Z,-10.79
2022-12-18T01:33:35.441Z,-10.79
2022-12-18T01:33:52.330Z,-10.79
2022-12-18T01:34:24.265Z,-10.79
2022-12-18T01:34:41.394Z,-10.79
2022-12-18T01:35:13.369Z,-10.74
2022-12-18T01:35:35.624Z,-10.74
2022-12-18T01:36:00.293Z,-10.74
2022-12-18T01:36:32.323Z,-10.74
2022-12-18T01:37:04.196Z,-10.74
2022-12-18T01:37:35.297Z,-10.74
2022-12-18T01:37:52.305Z,-10.74
2022-12-18T01:38:25.409Z,-10.93
2022-12-18T01:38:42.584Z,-10.93
2022-12-18T01:39:12.201Z,-10.93
2022-12-18T01:39:35.397Z,-10.93
2022-12-18T01:40:00.388Z,-10.93
2022-12-18T01:40:33.178Z,-10.93
2022-12-18T01:41:04.203Z,-11.04
2022-12-18T01:41:36.274Z,-11.04
2022-12-18T01:42:08.308Z,-11.04
2022-12-18T01:42:35.361Z,-11.04
2022-12-18T01:42:56.151Z,-11.04
2022-12-18T01:43:28.205Z,-11.04
2022-12-18T01:44:01.675Z,-11.04
2022-12-18T01:44:32.315Z,-11.04
2022-12-18T01:45:05.384Z,-10.90
2022-12-18T01:45:35.370Z,-10.90
2022-12-18T01:45:52.423Z,-10.90
2022-12-18T01:46:24.372Z,-10.90
2022-12-18T01:46:41.399Z,-10.90
2022-12-18T01:47:13.249Z,-10.79
2022-12-18T01:47:35.447Z,-10.79
2022-12-18T01:48:00.400Z,-10.79
2022-12-18T01:48:32.449Z,-10.93
2022-12-18T01:49:04.561Z,-10.79
2022-12-18T01:49:35.666Z,-10.79
2022-12-18T01:50:08.556Z,-10.93
2022-12-18T01:50:35.654Z,-10.79
2022-12-18T01:50:56.336Z,-10.79
2022-12-18T01:51:29.286Z,-10.79
2022-12-18T01:52:00.337Z,-10.79
2022-12-18T01:52:33.286Z,-10.79
2022-12-18T01:53:04.725Z,-10.79
2022-12-18T01:53:37.011Z,-10.74
2022-12-18T01:54:24.247Z,-10.88
2022-12-18T01:54:42.399Z,-10.93
2022-12-18T01:55:12.484Z,-10.93
2022-12-18T01:55:35.301Z,-10.93
2022-12-18T01:56:00.241Z,-11.04
2022-12-18T01:56:32.262Z,-10.90
2022-12-18T01:57:05.373Z,-10.90
2022-12-18T01:57:35.396Z,-10.90
2022-12-18T01:58:09.148Z,-10.90
2022-12-18T01:58:35.401Z,-10.90
2022-12-18T01:58:56.309Z,-10.90
2022-12-18T01:59:28.457Z,-11.04
2022-12-18T02:00:00.575Z,-11.04
2022-12-18T02:00:32.318Z,-11.16
2022-12-18T02:01:04.478Z,-11.02
2022-12-18T02:01:35.513Z,-11.02
2022-12-18T02:02:08.448Z,-11.16
2022-12-18T02:02:35.482Z,-11.16
2022-12-18T02:02:56.482Z,-11.16
2022-12-18T02:03:29.259Z,-11.02
2022-12-18T02:04:00.274Z,-11.16
2022-12-18T02:04:33.125Z,-11.16
2022-12-18T02:05:04.553Z,-11.16
2022-12-18T02:05:36.063Z,-11.16
2022-12-18T02:06:08.264Z,-11.02
2022-12-18T02:06:35.343Z,-11.02
2022-12-18T02:06:56.332Z,-11.02
2022-12-18T02:07:28.365Z,-11.02
2022-12-18T02:08:01.183Z,-10.90
2022-12-18T02:08:32.354Z,-10.90
2022-12-18T02:09:05.268Z,-10.79
2022-12-18T02:09:35.416Z,-10.79
2022-12-18T02:10:09.485Z,-10.74
2022-12-18T02:10:35.302Z,-10.88
2022-12-18T02:10:56.494Z,-10.88
2022-12-18T02:11:28.440Z,-10.74
2022-12-18T02:12:00.277Z,-10.74
2022-12-18T02:12:33.629Z,-10.74
2022-12-18T02:13:04.375Z,-10.74
2022-12-18T02:13:35.632Z,-10.74
2022-12-18T02:14:08.394Z,-10.88
2022-12-18T02:14:35.275Z,-10.88
2022-12-18T02:14:56.501Z,-10.88
2022-12-18T02:15:29.245Z,-10.88
2022-12-18T02:16:00.265Z,-10.88
2022-12-18T02:16:33.356Z,-10.88
2022-12-18T02:17:04.460Z,-10.88
2022-12-18T02:17:36.120Z,-10.88
2022-12-18T02:18:08.332Z,-10.74
2022-12-18T02:18:35.308Z,-10.74
2022-12-18T02:18:56.387Z,-10.88
2022-12-18T02:19:28.252Z,-10.88
2022-12-18T02:20:00.499Z,-10.74
2022-12-18T02:20:32.352Z,-10.74
2022-12-18T02:21:05.822Z,-10.74
2022-12-18T02:21:35.279Z,-10.74
2022-12-18T02:22:09.430Z,-10.74
2022-12-18T02:22:35.360Z,-10.74
2022-12-18T02:22:56.309Z,-10.74
2022-12-18T02:23:28.418Z,-10.88
2022-12-18T02:24:00.392Z,-10.74
2022-12-18T02:24:32.318Z,-10.74
2022-12-18T02:25:04.468Z,-10.93
2022-12-18T02:25:35.421Z,-10.93
2022-12-18T02:26:08.377Z,-10.79
2022-12-18T02:26:35.406Z,-10.79
2022-12-18T02:26:56.306Z,-10.79
2022-12-18T02:27:29.014Z,-10.74
2022-12-18T02:28:00.427Z,-10.63
2022-12-18T02:28:33.212Z,-10.63
2022-12-18T02:29:04.372Z,-10.52
2022-12-18T02:29:36.314Z,-10.40
2022-12-18T02:30:09.115Z,-10.40
2022-12-18T02:30:35.407Z,-10.40
2022-12-18T02:30:56.516Z,-10.40
2022-12-18T02:31:28.385Z,-10.40
2022-12-18T02:32:01.328Z,-10.40
2022-12-18T02:32:32.483Z,-10.40
2022-12-18T02:33:05.748Z,-10.40
2022-12-18T02:33:35.588Z,-10.40
2022-12-18T02:34:09.106Z,-10.30
2022-12-18T02:34:35.531Z,-10.25
2022-12-18T02:34:56.418Z,-10.14
2022-12-18T02:35:28.563Z,-9.91
2022-12-18T02:36:00.317Z,-9.80
2022-12-18T02:36:32.377Z,-9.75
2022-12-18T02:37:04.822Z,-9.75
2022-12-18T02:37:35.496Z,-9.64
2022-12-18T02:37:52.292Z,-9.53
2022-12-18T02:38:25.274Z,-9.41
2022-12-18T02:38:42.484Z,-9.41
2022-12-18T02:39:12.530Z,-9.31
2022-12-18T02:39:35.472Z,-9.31
2022-12-18T02:40:00.394Z,-9.31
2022-12-18T02:40:33.472Z,-9.31
2022-12-18T02:41:04.428Z,-9.31
2022-12-18T02:41:36.261Z,-9.31
2022-12-18T02:42:08.377Z,-9.26
2022-12-18T02:42:35.280Z,-9.26
2022-12-18T02:42:56.398Z,-9.26
2022-12-18T02:43:28.457Z,-9.15
2022-12-18T02:44:01.785Z,-9.15
2022-12-18T02:44:32.457Z,-9.15
2022-12-18T02:45:05.868Z,-9.15
2022-12-18T02:45:35.582Z,-9.15
2022-12-18T02:45:52.604Z,-9.15
2022-12-18T02:46:25.193Z,-9.15
2022-12-18T02:46:42.539Z,-9.15
2022-12-18T02:47:13.525Z,-9.26
2022-12-18T02:47:35.581Z,-9.26
2022-12-18T02:48:00.897Z,-9.26
2022-12-18T02:48:32.828Z,-9.31
2022-12-18T02:49:04.940Z,-9.31
2022-12-18T02:49:35.495Z,-9.31
2022-12-18T02:49:52.395Z,-9.41
2022-12-18T02:50:25.788Z,-9.41
2022-12-18T02:50:43.338Z,-9.53
2022-12-18T02:51:12.962Z,-9.53
2022-12-18T02:51:35.595Z,-9.53
2022-12-18T02:52:00.780Z,-9.53
2022-12-18T02:52:33.780Z,-9.64
2022-12-18T02:53:04.721Z,-9.64
2022-12-18T02:53:36.873Z,-9.64
2022-12-18T02:54:08.886Z,-9.64
2022-12-18T02:54:35.591Z,-9.64
2022-12-18T02:54:56.853Z,-9.53
2022-12-18T02:55:28.898Z,-9.53
2022-12-18T02:56:01.741Z,-9.53
2022-12-18T02:56:32.627Z,-9.41
2022-12-18T02:57:05.415Z,-9.41
2022-12-18T02:57:35.600Z,-9.41
2022-12-18T02:57:52.609Z,-9.41
2022-12-18T02:58:24.811Z,-9.31
2022-12-18T02:58:42.504Z,-9.31
2022-12-18T02:59:13.618Z,-9.31
2022-12-18T02:59:35.720Z,-9.31
2022-12-18T03:00:00.966Z,-9.31
2022-12-18T03:00:32.942Z,-9.31
2022-12-18T03:01:05.044Z,-9.31
2022-12-18T03:01:35.672Z,-9.31
2022-12-18T03:02:08.033Z,-9.26
2022-12-18T03:02:26.014Z,-9.26
2022-12-18T03:02:43.617Z,-9.26
2022-12-18T03:03:12.731Z,-9.26
2022-12-18T03:03:35.615Z,-9.26
2022-12-18T03:04:00.443Z,-9.15
2022-12-18T03:04:33.257Z,-9.15
2022-12-18T03:05:04.652Z,-9.15
2022-12-18T03:05:36.087Z,-9.15
2022-12-18T03:06:08.623Z,-9.15
2022-12-18T03:06:35.672Z,-9.15
2022-12-18T03:06:56.773Z,-9.15
2022-12-18T03:07:28.827Z,-9.26
2022-12-18T03:08:01.846Z,-9.26
2022-12-18T03:08:32.631Z,-9.26
2022-12-18T03:09:05.869Z,-9.26
2022-12-18T03:09:35.440Z,-9.26
2022-12-18T03:09:52.353Z,-9.26
2022-12-18T03:10:24.539Z,-9.26
2022-12-18T03:10:41.560Z,-9.31
2022-12-18T03:11:13.800Z,-9.31
2022-12-18T03:11:35.537Z,-9.31
2022-12-18T03:12:00.319Z,-9.31
2022-12-18T03:12:32.461Z,-9.31
2022-12-18T03:13:04.568Z,-9.31
2022-12-18T03:13:35.940Z,-9.31
2022-12-18T03:14:08.362Z,-9.31
2022-12-18T03:14:35.265Z,-9.31
2022-12-18T03:14:56.422Z,-9.31
2022-12-18T03:15:29.453Z,-9.41
2022-12-18T03:16:00.537Z,-9.41
2022-12-18T03:16:33.308Z,-9.41
2022-12-18T03:17:04.629Z,-9.31
2022-12-18T03:17:36.186Z,-9.31
2022-12-18T03:18:08.402Z,-9.26
2022-12-18T03:18:35.340Z,-9.26
2022-12-18T03:18:56.433Z,-9.26
2022-12-18T03:19:28.682Z,-9.26
2022-12-18T03:20:00.657Z,-9.26
2022-12-18T03:20:32.499Z,-9.26
2022-12-18T03:21:05.403Z,-9.26
2022-12-18T03:21:35.263Z,-9.26
2022-12-18T03:21:52.495Z,-9.15
2022-12-18T03:22:24.488Z,-9.15
2022-12-18T03:22:41.868Z,-9.15
2022-12-18T03:23:13.469Z,-9.15
2022-12-18T03:23:35.672Z,-9.15
2022-12-18T03:24:00.695Z,-9.15
2022-12-18T03:24:32.817Z,-9.15
2022-12-18T03:25:04.553Z,-9.15
2022-12-18T03:25:35.657Z,-9.26
2022-12-18T03:25:52.587Z,-9.26
2022-12-18T03:26:25.880Z,-9.26
2022-12-18T03:26:43.296Z,-9.26
2022-12-18T03:27:12.808Z,-9.26
2022-12-18T03:27:35.566Z,-9.15
2022-12-18T03:28:00.473Z,-9.15
2022-12-18T03:28:33.179Z,-9.15
2022-12-18T03:29:04.383Z,-9.15
2022-12-18T03:29:36.294Z,-9.15
2022-12-18T03:30:08.736Z,-9.15
2022-12-18T03:30:35.478Z,-9.15
2022-12-18T03:30:56.535Z,-9.15
2022-12-18T03:31:28.523Z,-9.15
2022-12-18T03:32:01.379Z,-9.15
2022-12-18T03:32:32.583Z,-9.04
2022-12-18T03:33:05.322Z,-9.04
2022-12-18T03:33:35.431Z,-8.92
2022-12-18T03:33:52.467Z,-8.81
2022-12-18T03:34:24.486Z,-8.81
2022-12-18T03:34:41.541Z,-8.81
2022-12-18T03:35:13.629Z,-8.81
2022-12-18T03:35:35.252Z,-8.81
2022-12-18T03:36:00.502Z,-8.81
2022-12-18T03:36:32.482Z,-8.92
2022-12-18T03:37:04.461Z,-8.92
2022-12-18T03:37:35.396Z,-8.92
2022-12-18T03:38:08.487Z,-8.92
2022-12-18T03:38:35.916Z,-8.92
2022-12-18T03:38:56.463Z,-8.92
2022-12-18T03:39:29.357Z,-8.92
2022-12-18T03:40:00.701Z,-8.92
2022-12-18T03:40:33.191Z,-8.92
2022-12-18T03:41:04.532Z,-8.92
2022-12-18T03:41:36.064Z,-8.92
2022-12-18T03:42:08.554Z,-9.04
2022-12-18T03:42:35.337Z,-9.04
2022-12-18T03:42:56.460Z,-9.04
2022-12-18T03:43:28.538Z,-9.04
2022-12-18T03:44:01.936Z,-9.04
2022-12-18T03:44:32.481Z,-9.04
2022-12-18T03:45:05.631Z,-9.04
2022-12-18T03:45:35.423Z,-9.04
2022-12-18T03:46:09.397Z,-9.04
2022-12-18T03:46:35.271Z,-9.15
2022-12-18T03:46:56.517Z,-9.15
2022-12-18T03:47:28.595Z,-9.15
2022-12-18T03:48:00.469Z,-9.04
2022-12-18T03:48:32.550Z,-9.04
2022-12-18T03:49:04.543Z,-9.04
2022-12-18T03:49:35.304Z,-9.04
2022-12-18T03:49:52.433Z,-9.04
2022-12-18T03:50:25.695Z,-8.92
2022-12-18T03:50:42.743Z,-8.92
2022-12-18T03:51:12.605Z,-8.92
2022-12-18T03:51:35.433Z,-8.92
2022-12-18T03:52:00.428Z,-8.92
2022-12-18T03:52:33.539Z,-8.92
2022-12-18T03:53:04.560Z,-9.04
2022-12-18T03:53:36.144Z,-9.04
2022-12-18T03:54:09.042Z,-9.04
2022-12-18T03:54:35.340Z,-9.04
2022-12-18T03:54:56.986Z,-8.92
2022-12-18T03:55:28.648Z,-8.92
2022-12-18T03:56:01.523Z,-8.92
2022-12-18T03:56:32.600Z,-8.92
2022-12-18T03:57:05.235Z,-8.92
2022-12-18T03:57:35.291Z,-8.92
2022-12-18T03:58:08.046Z,-8.92
2022-12-18T03:58:25.541Z,-8.92
2022-12-18T03:58:42.824Z,-8.92
2022-12-18T03:59:12.544Z,-8.92
2022-12-18T03:59:35.429Z,-8.92
2022-12-18T04:00:00.967Z,-8.92
2022-12-18T04:00:33.382Z,-8.92
2022-12-18T04:01:04.482Z,-8.92
2022-12-18T04:01:36.423Z,-8.92
2022-12-18T04:02:08.684Z,-8.81
2022-12-18T04:02:35.528Z,-8.92
2022-12-18T04:02:56.475Z,-8.92
2022-12-18T04:03:28.653Z,-8.92
2022-12-18T04:04:01.530Z,-8.92
2022-12-18T04:04:32.682Z,-8.92
2022-12-18T04:05:05.622Z,-8.92
2022-12-18T04:05:35.425Z,-8.92
2022-12-18T04:05:52.893Z,-8.81
2022-12-18T04:06:24.816Z,-8.76
2022-12-18T04:06:42.271Z,-8.76
2022-12-18T04:07:14.047Z,-8.76
2022-12-18T04:07:35.435Z,-8.76
2022-12-18T04:08:00.893Z,-8.76
2022-12-18T04:08:38.073Z,-8.76
2022-12-18T04:09:04.914Z,-8.76
2022-12-18T04:09:35.788Z,-8.76
2022-12-18T04:09:53.055Z,-8.76
2022-12-18T04:10:25.602Z,-8.76
2022-12-18T04:10:42.519Z,-8.76
2022-12-18T04:11:12.527Z,-8.76
2022-12-18T04:11:36.019Z,-8.76
2022-12-18T04:12:00.616Z,-8.90
2022-12-18T04:12:33.905Z,-8.76
2022-12-18T04:13:04.540Z,-8.90
2022-12-18T04:13:36.258Z,-8.90
2022-12-18T04:14:11.863Z,-8.81
2022-12-18T04:14:35.447Z,-8.95
2022-12-18T04:14:56.463Z,-8.95
2022-12-18T04:15:28.857Z,-8.95
2022-12-18T04:16:01.607Z,-8.81
2022-12-18T04:16:32.592Z,-8.81
2022-12-18T04:17:05.499Z,-8.76
2022-12-18T04:17:35.485Z,-8.76
2022-12-18T04:17:52.629Z,-8.90
2022-12-18T04:18:24.646Z,-8.90
2022-12-18T04:18:41.669Z,-8.90
2022-12-18T04:19:13.483Z,-8.90
2022-12-18T04:19:35.364Z,-8.90
2022-12-18T04:20:00.770Z,-8.90
2022-12-18T04:20:32.620Z,-8.95
2022-12-18T04:21:05.406Z,-8.95
2022-12-18T04:21:35.409Z,-8.95
2022-12-18T04:21:52.633Z,-8.95
2022-12-18T04:22:24.555Z,-8.95
2022-12-18T04:22:41.634Z,-8.81
2022-12-18T04:23:14.796Z,-8.95
2022-12-18T04:23:35.328Z,-8.95
2022-12-18T04:24:00.616Z,-8.90
2022-12-18T04:24:32.531Z,-8.90
2022-12-18T04:25:04.812Z,-8.90
2022-12-18T04:25:35.779Z,-8.90
2022-12-18T04:25:52.819Z,-8.90
2022-12-18T04:26:25.936Z,-8.90
2022-12-18T04:26:43.527Z,-8.90
2022-12-18T04:27:12.721Z,-8.90
2022-12-18T04:27:35.486Z,-8.95
2022-12-18T04:28:01.033Z,-8.95
2022-12-18T04:28:33.942Z,-8.95
2022-12-18T04:29:04.993Z,-8.95
2022-12-18T04:29:36.600Z,-8.95
2022-12-18T04:30:09.064Z,-8.95
2022-12-18T04:30:35.784Z,-8.95
2022-12-18T04:30:57.106Z,-8.95
2022-12-18T04:31:28.971Z,-8.76
2022-12-18T04:32:01.996Z,-8.90
2022-12-18T04:32:32.722Z,-8.90
2022-12-18T04:33:05.760Z,-8.90
2022-12-18T04:33:36.030Z,-8.90
2022-12-18T04:33:52.298Z,-8.90
2022-12-18T04:34:24.554Z,-8.90
2022-12-18T04:34:41.677Z,-8.90
2022-12-18T04:35:13.818Z,-8.76
2022-12-18T04:35:35.402Z,-8.76
2022-12-18T04:36:00.485Z,-8.80
2022-12-18T04:36:32.561Z,-8.80
2022-12-18T04:37:04.642Z,-8.80
2022-12-18T04:37:35.492Z,-8.80
2022-12-18T04:37:52.589Z,-8.69
2022-12-18T04:38:25.456Z,-8.80
2022-12-18T04:38:42.683Z,-8.80
2022-12-18T04:39:12.663Z,-8.80
2022-12-18T04:39:35.846Z,-8.80
2022-12-18T04:40:00.903Z,-8.90
2022-12-18T04:40:33.672Z,-8.90
2022-12-18T04:41:04.699Z,-8.90
2022-12-18T04:41:36.175Z,-8.90
2022-12-18T04:42:08.518Z,-8.90
2022-12-18T04:42:35.386Z,-8.90
2022-12-18T04:42:56.795Z,-8.90
2022-12-18T04:43:28.620Z,-8.90
2022-12-18T04:44:01.808Z,-8.90
2022-12-18T04:44:32.604Z,-8.80
2022-12-18T04:45:05.755Z,-8.80
2022-12-18T04:45:35.388Z,-8.80
2022-12-18T04:45:52.672Z,-8.80
2022-12-18T04:46:24.732Z,-8.80
2022-12-18T04:46:41.781Z,-8.80
2022-12-18T04:47:13.788Z,-8.90
2022-12-18T04:47:35.715Z,-8.90
2022-12-18T04:48:00.676Z,-8.90
2022-12-18T04:48:32.824Z,-8.90
2022-12-18T04:49:04.676Z,-8.90
2022-12-18T04:49:35.293Z,-8.90
2022-12-18T04:49:52.485Z,-8.90
2022-12-18T04:50:25.914Z,-8.90
2022-12-18T04:50:43.422Z,-8.90
2022-12-18T04:51:12.927Z,-8.90
2022-12-18T04:51:35.397Z,-8.90
2022-12-18T04:52:00.780Z,-8.90
2022-12-18T04:52:33.802Z,-8.90
2022-12-18T04:53:05.010Z,-8.95
2022-12-18T04:53:36.920Z,-8.95
2022-12-18T04:54:08.552Z,-8.95
2022-12-18T04:54:35.398Z,-8.95
2022-12-18T04:54:56.637Z,-8.95
2022-12-18T04:55:35.615Z,-8.95
2022-12-18T04:56:01.515Z,-8.95
2022-12-18T04:56:32.679Z,-9.06
2022-12-18T04:57:05.450Z,-9.06
2022-12-18T04:57:36.088Z,-9.06
2022-12-18T04:57:52.511Z,-9.06
2022-12-18T04:58:24.740Z,-9.06
2022-12-18T04:58:42.285Z,-9.06
2022-12-18T04:59:13.962Z,-8.95
2022-12-18T04:59:35.758Z,-8.95
2022-12-18T05:00:01.007Z,-8.95
2022-12-18T05:00:32.921Z,-8.95
2022-12-18T05:01:04.845Z,-8.95
2022-12-18T05:01:35.652Z,-8.95
2022-12-18T05:01:52.548Z,-8.95
2022-12-18T05:02:25.836Z,-8.95
2022-12-18T05:02:43.692Z,-8.95
2022-12-18T05:03:12.906Z,-8.95
2022-12-18T05:03:35.749Z,-8.95
2022-12-18T05:04:00.906Z,-8.95
2022-12-18T05:04:33.817Z,-8.95
2022-12-18T05:05:05.178Z,-8.95
2022-12-18T05:05:36.361Z,-8.95
2022-12-18T05:06:08.649Z,-8.95
2022-12-18T05:06:35.415Z,-8.95
2022-12-18T05:06:56.560Z,-8.95
2022-12-18T05:07:28.951Z,-8.95
2022-12-18T05:08:01.595Z,-8.95
2022-12-18T05:08:33.057Z,-8.95
2022-12-18T05:09:05.416Z,-8.95
2022-12-18T05:09:35.489Z,-8.95
2022-12-18T05:09:52.690Z,-8.95
2022-12-18T05:10:24.929Z,-8.95
2022-12-18T05:10:42.512Z,-8.95
2022-12-18T05:11:13.948Z,-8.95
2022-12-18T05:11:35.788Z,-8.95
2022-12-18T05:12:00.940Z,-8.95
2022-12-18T05:12:32.838Z,-8.95
2022-12-18T05:13:05.245Z,-8.95
2022-12-18T05:13:35.625Z,-8.95
2022-12-18T05:13:52.488Z,-8.95
2022-12-18T05:14:25.977Z,-8.95
2022-12-18T05:14:57.023Z,-9.06
2022-12-18T05:15:29.830Z,-9.06
2022-12-18T05:16:01.207Z,-9.06
2022-12-18T05:16:34.099Z,-9.06
2022-12-18T05:17:05.207Z,-9.06
2022-12-18T05:17:36.404Z,-9.06
2022-12-18T05:18:09.010Z,-9.06
2022-12-18T05:18:35.735Z,-9.06
2022-12-18T05:18:56.607Z,-9.06
2022-12-18T05:19:29.197Z,-9.06
2022-12-18T05:20:01.258Z,-9.18
2022-12-18T05:20:33.096Z,-9.18
2022-12-18T05:21:05.859Z,-9.18
2022-12-18T05:21:35.689Z,-9.18
2022-12-18T05:21:52.617Z,-9.18
2022-12-18T05:22:25.441Z,-9.18
2022-12-18T05:22:43.405Z,-9.18
2022-12-18T05:23:13.408Z,-9.18
2022-12-18T05:23:36.005Z,-9.18
2022-12-18T05:24:00.767Z,-9.18
2022-12-18T05:24:33.386Z,-9.18
2022-12-18T05:25:04.881Z,-9.18
2022-12-18T05:25:35.447Z,-9.18
2022-12-18T05:25:52.867Z,-9.18
2022-12-18T05:26:25.474Z,-9.18
2022-12-18T05:26:42.564Z,-9.18
2022-12-18T05:27:12.711Z,-9.18
2022-12-18T05:27:35.463Z,-9.18
2022-12-18T05:28:00.709Z,-9.18
2022-12-18T05:28:34.208Z,-9.18
2022-12-18T05:29:05.185Z,-9.29
2022-12-18T05:29:36.413Z,-9.29
2022-12-18T05:30:09.212Z,-9.29
2022-12-18T05:30:35.496Z,-9.29
2022-12-18T05:30:57.122Z,-9.29
2022-12-18T05:31:29.188Z,-9.29
2022-12-18T05:32:01.996Z,-9.29
2022-12-18T05:32:32.834Z,-9.29
2022-12-18T05:33:06.012Z,-9.29
2022-12-18T05:33:35.703Z,-9.29
2022-12-18T05:33:52.413Z,-9.29
2022-12-18T05:34:24.935Z,-9.29
2022-12-18T05:34:42.622Z,-9.29
2022-12-18T05:35:13.811Z,-9.29
2022-12-18T05:35:35.434Z,-9.40
2022-12-18T05:36:00.674Z,-9.40
2022-12-18T05:36:32.716Z,-9.40
2022-12-18T05:37:04.792Z,-9.40
2022-12-18T05:37:41.067Z,-9.40
2022-12-18T05:37:52.626Z,-9.29
2022-12-18T05:38:26.257Z,-9.29
2022-12-18T05:38:58.512Z,-9.29
2022-12-18T05:39:30.168Z,-9.29
2022-12-18T05:40:01.257Z,-9.29
2022-12-18T05:40:34.398Z,-9.29
2022-12-18T05:41:05.133Z,-9.29
2022-12-18T05:41:36.803Z,-9.40
2022-12-18T05:42:08.887Z,-9.40
2022-12-18T05:42:35.607Z,-9.40
2022-12-18T05:42:57.056Z,-9.40
2022-12-18T05:43:29.256Z,-9.40
2022-12-18T05:44:02.258Z,-9.29
2022-12-18T05:44:32.943Z,-9.29
2022-12-18T05:45:06.157Z,-9.29
2022-12-18T05:45:35.687Z,-9.29
2022-12-18T05:45:52.687Z,-9.29
2022-12-18T05:46:24.933Z,-9.29
2022-12-18T05:46:42.936Z,-9.29
2022-12-18T05:47:14.217Z,-9.40
2022-12-18T05:47:43.238Z,-9.40
2022-12-18T05:48:01.294Z,-9.15
2022-12-18T05:48:32.977Z,-9.29
2022-12-18T05:49:05.162Z,-9.29
2022-12-18T05:49:35.626Z,-9.40
2022-12-18T05:50:09.238Z,-9.40
2022-12-18T05:50:35.621Z,-9.40
2022-12-18T05:50:57.244Z,-9.40
2022-12-18T05:51:30.171Z,-9.40
2022-12-18T05:52:00.984Z,-9.26
2022-12-18T05:52:33.998Z,-9.26
2022-12-18T05:53:04.781Z,-9.40
2022-12-18T05:53:36.744Z,-9.40
2022-12-18T05:54:08.761Z,-9.26
2022-12-18T05:54:35.866Z,-9.26
2022-12-18T05:54:57.113Z,-9.26
2022-12-18T05:55:28.868Z,-9.26
2022-12-18T05:56:02.105Z,-9.26
2022-12-18T05:56:33.237Z,-9.26
2022-12-18T05:57:06.100Z,-9.15
2022-12-18T05:57:35.497Z,-9.15
2022-12-18T05:57:52.790Z,-9.15
2022-12-18T05:58:24.799Z,-9.15
2022-12-18T05:58:42.418Z,-9.15
2022-12-18T05:59:13.853Z,-9.15